Time;durP1;ratioP1;P1;durP2;ratioP2;P2;SDS_P1;SDS_P2;PMS_P1;PMS_P2;Temp;Humidity;BMP_temperature;BMP_pressure;BME280_temperature;BME280_humidity;BME280_pressure;Samples;Min_cycle;Max_cycle;Signal;HPM_P1;HPM_P2
2022/04/01 00:00:44;;;;;;;4.68;4.15;;;7.30;41.90;;;;;;5046916;28;20225;-64
2022/04/01 00:03:12;;;;;;;7.18;4.32;;;7.30;42.00;;;;;;5057617;28;20233;-64
2022/04/01 00:05:39;;;;;;;5.18;4.72;;;7.20;42.00;;;;;;5052798;28;20581;-64
2022/04/01 00:08:09;;;;;;;5.03;4.53;;;7.20;42.20;;;;;;5052242;28;20220;-64
2022/04/01 00:10:36;;;;;;;8.68;4.53;;;7.10;42.30;;;;;;5052575;28;20256;-64
2022/04/01 00:13:05;;;;;;;6.75;4.18;;;7.10;42.30;;;;;;5052095;28;20235;-65
2022/04/01 00:15:32;;;;;;;4.80;4.30;;;7.10;42.50;;;;;;5052558;28;20220;-64
2022/04/01 00:18:00;;;;;;;7.18;4.10;;;7.00;42.50;;;;;;5051960;28;20291;-64
2022/04/01 00:20:27;;;;;;;13.00;4.28;;;6.90;42.60;;;;;;5052297;28;20221;-65
2022/04/01 00:22:55;;;;;;;5.15;4.40;;;6.90;42.70;;;;;;5051631;28;20224;-66
2022/04/01 00:25:22;;;;;;;4.75;4.30;;;6.90;42.90;;;;;;5052298;28;20578;-64
2022/04/01 00:27:50;;;;;;;5.85;5.10;;;6.80;42.80;;;;;;5051661;28;20228;-65
2022/04/01 00:30:19;;;;;;;5.95;3.92;;;6.70;42.90;;;;;;5052225;28;20532;-65
2022/04/01 00:32:46;;;;;;;6.63;3.90;;;6.60;43.10;;;;;;5051576;28;20225;-64
2022/04/01 00:35:13;;;;;;;6.50;4.45;;;6.50;43.30;;;;;;5052381;28;20225;-65
2022/04/01 00:37:40;;;;;;;4.60;4.20;;;6.40;43.50;;;;;;5051890;28;20224;-64
2022/04/01 00:40:09;;;;;;;4.40;3.95;;;6.40;43.60;;;;;;5051681;28;20610;-64
2022/04/01 00:42:36;;;;;;;7.32;4.20;;;6.40;43.80;;;;;;5048684;28;20229;-64
2022/04/01 00:45:04;;;;;;;6.53;4.93;;;6.40;43.50;;;;;;5049325;28;20228;-64
2022/04/01 00:47:32;;;;;;;10.35;4.38;;;6.30;43.60;;;;;;5055118;28;20252;-64
2022/04/01 00:49:59;;;;;;;4.88;3.42;;;6.30;43.70;;;;;;5055038;28;20626;-64
2022/04/01 00:52:26;;;;;;;5.35;3.75;;;6.10;43.80;;;;;;5050057;28;20221;-64
2022/04/01 00:54:53;;;;;;;4.97;3.50;;;6.10;43.90;;;;;;5054507;28;20308;-64
2022/04/01 00:57:21;;;;;;;4.78;3.55;;;6.10;43.80;;;;;;5055828;28;20559;-64
2022/04/01 00:59:50;;;;;;;4.00;3.60;;;6.10;44.10;;;;;;5052520;28;20249;-64
2022/04/01 01:02:17;;;;;;;6.10;4.63;;;6.10;44.20;;;;;;5056123;28;20221;-64
2022/04/01 01:04:46;;;;;;;11.02;3.90;;;6.00;44.10;;;;;;5055865;28;20225;-64
2022/04/01 01:07:13;;;;;;;5.15;3.80;;;6.00;44.20;;;;;;5055686;28;20906;-64
2022/04/01 01:09:41;;;;;;;4.47;4.07;;;6.00;44.10;;;;;;5056057;28;20236;-64
2022/04/01 01:12:08;;;;;;;4.07;3.60;;;6.00;44.00;;;;;;5055258;28;20227;-64
2022/04/01 01:14:37;;;;;;;4.85;2.95;;;5.90;44.00;;;;;;5056031;28;20221;-64
2022/04/01 01:17:07;;;;;;;6.60;3.97;;;5.90;44.20;;;;;;5055190;28;20221;-65
2022/04/01 01:19:37;;;;;;;5.07;4.20;;;5.80;44.20;;;;;;5043958;28;20220;-64
2022/04/01 01:22:06;;;;;;;3.90;3.60;;;5.80;44.50;;;;;;5055123;28;20816;-64
2022/04/01 01:24:35;;;;;;;8.77;3.92;;;5.80;44.40;;;;;;5055848;28;20691;-64
2022/04/01 01:27:05;;;;;;;9.35;4.30;;;5.80;44.50;;;;;;5055212;28;20291;-64
2022/04/01 01:29:34;;;;;;;5.93;3.95;;;5.90;44.40;;;;;;5055529;28;20301;-64
2022/04/01 01:32:02;;;;;;;5.13;4.50;;;5.80;44.50;;;;;;5055035;28;20605;-64
2022/04/01 01:34:32;;;;;;;6.22;4.88;;;5.70;44.40;;;;;;5055599;28;20225;-64
2022/04/01 01:37:00;;;;;;;4.10;3.50;;;5.70;44.60;;;;;;5054832;28;20225;-64
2022/04/01 01:39:27;;;;;;;5.32;4.03;;;5.70;44.60;;;;;;5055604;28;20218;-64
2022/04/01 01:41:55;;;;;;;3.97;3.55;;;5.60;44.70;;;;;;5054877;28;20576;-64
2022/04/01 01:44:24;;;;;;;5.68;3.85;;;5.70;44.80;;;;;;5055064;28;20230;-64
2022/04/01 01:46:51;;;;;;;6.78;3.80;;;5.70;44.80;;;;;;5055383;28;20271;-64
2022/04/01 01:49:22;;;;;;;4.00;3.65;;;5.60;44.70;;;;;;5054944;28;20213;-64
2022/04/01 01:54:44;;;;;;;5.00;3.40;;;5.60;44.60;;;;;;5052415;28;20227;-64
2022/04/01 01:57:14;;;;;;;4.50;4.10;;;5.60;44.60;;;;;;5055040;28;20256;-64
2022/04/01 01:59:41;;;;;;;4.57;4.13;;;5.60;44.90;;;;;;5053052;28;20213;-65
2022/04/01 02:02:08;;;;;;;5.82;4.63;;;5.60;44.70;;;;;;5054993;28;20228;-65
2022/04/01 02:04:35;;;;;;;4.30;3.78;;;5.70;45.00;;;;;;5054574;28;20607;-65
2022/04/01 02:07:02;;;;;;;4.50;4.10;;;5.70;45.00;;;;;;5054768;28;20290;-64
2022/04/01 02:09:28;;;;;;;6.18;4.47;;;5.80;45.00;;;;;;5054489;28;20235;-63
2022/04/01 02:11:56;;;;;;;6.25;4.45;;;5.80;45.10;;;;;;5054927;28;20237;-65
2022/04/01 02:14:24;;;;;;;3.50;3.20;;;5.90;45.10;;;;;;5041026;28;20242;-64
2022/04/01 02:16:51;;;;;;;6.75;4.78;;;5.80;44.90;;;;;;5054681;28;20225;-64
2022/04/01 02:19:21;;;;;;;7.97;4.65;;;5.80;45.00;;;;;;5040817;28;20227;-65
2022/04/01 02:21:49;;;;;;;5.65;3.70;;;5.70;45.00;;;;;;5041786;28;20256;-65
2022/04/01 02:24:17;;;;;;;6.57;4.80;;;5.70;45.70;;;;;;5054505;28;20287;-65
2022/04/01 02:26:44;;;;;;;4.88;4.47;;;5.50;45.10;;;;;;5054120;28;20220;-65
2022/04/01 02:29:11;;;;;;;5.15;3.75;;;5.40;45.30;;;;;;5054418;28;20229;-65
2022/04/01 02:31:39;;;;;;;8.20;4.93;;;5.40;45.50;;;;;;5053345;28;20241;-64
2022/04/01 02:34:12;;;;;;;4.97;4.40;;;5.40;45.50;;;;;;5054540;28;20225;-65
2022/04/01 02:36:39;;;;;;;8.65;3.97;;;5.30;45.70;;;;;;5053729;28;20248;-65
2022/04/01 02:39:09;;;;;;;6.15;4.97;;;5.30;45.70;;;;;;5054153;28;20275;-65
2022/04/01 02:44:33;;;;;;;7.45;4.68;;;5.20;45.80;;;;;;5012067;28;20226;-64
2022/04/01 02:47:01;;;;;;;6.25;4.50;;;5.20;45.90;;;;;;5044288;28;20308;-64
2022/04/01 02:49:28;;;;;;;9.02;3.95;;;5.10;46.10;;;;;;5053598;28;20577;-66
2022/04/01 02:51:55;;;;;;;4.13;3.35;;;5.10;46.20;;;;;;5053027;28;20228;-65
2022/04/01 02:54:22;;;;;;;5.30;4.70;;;5.10;46.50;;;;;;5049806;28;20252;-66
2022/04/01 02:56:48;;;;;;;5.65;4.90;;;5.10;46.50;;;;;;5053968;28;20227;-64
2022/04/01 02:59:15;;;;;;;5.95;3.92;;;5.10;46.40;;;;;;5053955;28;20554;-64
2022/04/01 03:01:42;;;;;;;5.25;3.50;;;5.10;46.60;;;;;;5053405;28;20233;-64
2022/04/01 03:04:12;;;;;;;5.68;4.85;;;5.10;46.70;;;;;;5053791;28;20229;-64
2022/04/01 03:06:39;;;;;;;6.57;5.97;;;5.00;46.50;;;;;;5053285;28;20236;-65
2022/04/01 03:09:06;;;;;;;6.03;5.10;;;5.00;46.60;;;;;;5052791;28;20254;-65
2022/04/01 03:11:33;;;;;;;6.95;4.40;;;4.90;46.60;;;;;;5053154;28;20228;-64
2022/04/01 03:14:00;;;;;;;4.82;4.40;;;5.00;46.80;;;;;;5053629;28;20221;-65
2022/04/01 03:16:27;;;;;;;6.07;4.15;;;4.90;46.70;;;;;;5053274;28;20229;-65
2022/04/01 03:18:57;;;;;;;5.82;4.88;;;4.90;46.90;;;;;;5053454;28;20691;-65
2022/04/01 03:21:25;;;;;;;7.15;4.65;;;4.90;47.00;;;;;;5053005;28;20277;-65
2022/04/01 03:23:53;;;;;;;4.72;4.28;;;4.90;47.00;;;;;;5053195;28;20710;-64
2022/04/01 03:26:20;;;;;;;6.80;4.70;;;4.80;46.90;;;;;;5053252;28;20319;-64
2022/04/01 03:28:47;;;;;;;4.88;4.47;;;4.90;47.00;;;;;;5052859;28;20667;-64
2022/04/01 03:34:01;;;;;;;4.80;4.30;;;4.80;47.00;;;;;;5037934;28;20235;-64
2022/04/01 03:36:29;;;;;;;8.55;5.30;;;4.90;47.00;;;;;;5052567;28;20667;-64
2022/04/01 03:38:56;;;;;;;7.63;4.25;;;4.80;46.90;;;;;;5053210;28;20232;-65
2022/04/01 03:41:23;;;;;;;6.07;4.60;;;4.90;47.00;;;;;;5052637;28;20239;-65
2022/04/01 03:43:51;;;;;;;8.45;5.30;;;4.80;46.80;;;;;;5053162;28;20225;-65
2022/04/01 03:46:21;;;;;;;4.65;4.20;;;4.80;46.90;;;;;;5052735;28;20225;-64
2022/04/01 03:48:58;;;;;;;5.30;4.70;;;4.70;46.90;;;;;;5052934;28;20257;-65
2022/04/01 03:51:25;;;;;;;8.40;4.32;;;4.70;46.80;;;;;;5052229;28;20240;-65
2022/04/01 03:53:57;;;;;;;4.68;4.18;;;4.60;46.80;;;;;;5052974;28;20296;-65
2022/04/01 03:56:31;;;;;;;5.15;4.40;;;4.50;47.00;;;;;;5052435;28;20683;-65
2022/04/01 03:59:02;;;;;;;6.47;4.88;;;4.50;47.20;;;;;;5038282;28;20416;-65
2022/04/01 04:01:29;;;;;;;5.47;4.38;;;4.50;47.20;;;;;;5039833;28;20244;-65
2022/04/01 04:03:57;;;;;;;4.85;4.45;;;4.40;47.20;;;;;;5052891;28;20263;-65
2022/04/01 04:06:32;;;;;;;10.88;5.07;;;4.50;47.40;;;;;;5052266;28;20239;-64
2022/04/01 04:09:02;;;;;;;5.50;4.32;;;4.50;47.50;;;;;;5047964;28;20244;-65
2022/04/01 04:11:31;;;;;;;4.30;3.90;;;4.50;47.40;;;;;;5052332;28;20667;-65
2022/04/01 04:14:00;;;;;;;5.32;4.20;;;4.50;47.50;;;;;;5052590;28;20701;-65
2022/04/01 04:16:30;;;;;;;4.85;4.10;;;4.50;47.50;;;;;;5052149;28;20245;-64
2022/04/01 04:19:09;;;;;;;5.70;4.40;;;4.50;47.60;;;;;;5052555;28;20366;-64
2022/04/01 04:21:41;;;;;;;5.47;3.80;;;4.50;47.70;;;;;;5052199;28;20251;-66
2022/04/01 04:24:19;;;;;;;9.52;4.70;;;4.50;47.80;;;;;;5052305;28;20560;-65
2022/04/01 04:26:50;;;;;;;6.30;4.60;;;4.40;48.10;;;;;;5052039;28;20221;-65
2022/04/01 04:32:17;;;;;;;5.60;4.05;;;4.30;48.40;;;;;;5033071;28;20224;-65
2022/04/01 04:34:48;;;;;;;6.45;4.65;;;4.30;48.40;;;;;;5052370;28;20220;-65
2022/04/01 04:37:16;;;;;;;8.38;4.60;;;4.30;48.60;;;;;;5052039;28;20694;-66
2022/04/01 04:39:44;;;;;;;4.80;3.90;;;4.30;48.80;;;;;;5052284;28;20224;-66
2022/04/01 04:42:13;;;;;;;6.95;4.30;;;4.30;48.90;;;;;;5051889;28;20237;-65
2022/04/01 04:44:41;;;;;;;5.80;4.30;;;4.30;48.90;;;;;;5052345;28;20243;-66
2022/04/01 04:47:08;;;;;;;7.28;4.60;;;4.30;49.10;;;;;;5051896;28;20221;-65
2022/04/01 04:49:37;;;;;;;4.43;4.03;;;4.30;49.20;;;;;;5052291;28;20670;-65
2022/04/01 04:52:05;;;;;;;6.30;4.43;;;4.30;49.20;;;;;;5051686;28;20229;-66
2022/04/01 04:54:33;;;;;;;4.95;4.07;;;4.30;49.20;;;;;;5052138;28;20300;-65
2022/04/01 04:57:08;;;;;;;5.72;4.05;;;4.30;49.30;;;;;;5052377;28;20567;-64
2022/04/01 04:59:38;;;;;;;4.82;4.32;;;4.30;49.20;;;;;;5052021;28;20724;-64
2022/04/01 05:02:06;;;;;;;4.85;3.80;;;4.30;49.20;;;;;;5052275;28;20233;-64
2022/04/01 05:04:46;;;;;;;5.45;4.05;;;4.30;49.30;;;;;;5051906;28;20221;-65
2022/04/01 05:07:29;;;;;;;3.95;3.65;;;4.30;49.40;;;;;;5051641;28;20228;-65
2022/04/01 05:10:03;;;;;;;5.78;4.45;;;4.30;49.60;;;;;;5052269;28;20599;-65
2022/04/01 05:12:36;;;;;;;11.00;4.85;;;4.30;49.70;;;;;;5051917;28;20251;-65
2022/04/01 05:15:09;;;;;;;7.88;3.80;;;4.30;49.60;;;;;;5052363;28;20221;-65
2022/04/01 05:17:37;;;;;;;6.00;4.00;;;4.20;50.00;;;;;;5051779;28;20232;-64
2022/04/01 05:20:11;;;;;;;6.60;3.92;;;4.20;50.00;;;;;;5052118;28;20233;-65
2022/04/01 05:22:47;;;;;;;4.68;4.18;;;4.20;50.20;;;;;;5051984;28;21054;-65
2022/04/01 05:25:18;;;;;;;5.32;4.93;;;4.20;50.20;;;;;;5051785;28;20679;-65
2022/04/01 05:27:49;;;;;;;5.70;3.92;;;4.20;51.20;;;;;;5052061;28;20225;-64
2022/04/01 05:30:17;;;;;;;5.07;4.30;;;4.20;52.20;;;;;;5051473;28;20226;-64
2022/04/01 05:32:58;;;;;;;4.10;3.55;;;4.20;51.70;;;;;;5054087;28;20233;-65
2022/04/01 05:35:29;;;;;;;6.30;3.80;;;4.20;51.60;;;;;;5055519;28;20294;-65
2022/04/01 05:37:57;;;;;;;5.43;3.97;;;4.30;51.10;;;;;;5055473;28;20232;-65
2022/04/01 05:40:24;;;;;;;5.30;3.40;;;4.30;50.80;;;;;;5055051;28;20236;-65
2022/04/01 05:42:53;;;;;;;4.57;4.07;;;4.20;50.80;;;;;;5055658;28;20229;-64
2022/04/01 05:45:20;;;;;;;4.13;3.70;;;4.20;51.10;;;;;;5055042;28;20284;-65
2022/04/01 05:47:48;;;;;;;5.55;4.55;;;4.20;51.30;;;;;;5055392;28;20213;-65
2022/04/01 05:50:19;;;;;;;4.68;4.22;;;4.20;51.50;;;;;;5055282;28;20252;-65
2022/04/01 05:52:48;;;;;;;8.35;3.95;;;4.20;51.60;;;;;;5055203;28;21045;-66
2022/04/01 05:55:16;;;;;;;5.55;3.45;;;4.20;51.60;;;;;;5055282;28;20682;-65
2022/04/01 05:57:43;;;;;;;6.70;4.68;;;4.20;51.70;;;;;;5054892;28;20226;-65
2022/04/01 06:00:12;;;;;;;6.72;4.25;;;4.20;51.80;;;;;;5055176;28;20292;-65
2022/04/01 06:02:58;;;;;;;5.57;3.97;;;4.10;51.90;;;;;;5054715;28;20221;-65
2022/04/01 06:05:29;;;;;;;3.42;3.13;;;4.10;51.80;;;;;;5054627;28;20224;-65
2022/04/01 06:08:05;;;;;;;6.05;3.75;;;4.10;51.90;;;;;;5055099;28;20225;-65
2022/04/01 06:10:42;;;;;;;6.35;3.78;;;4.10;52.10;;;;;;5054583;28;20343;-66
2022/04/01 06:13:26;;;;;;;7.25;3.67;;;4.20;52.10;;;;;;5054893;28;20232;-66
2022/04/01 06:16:09;;;;;;;7.07;4.68;;;4.20;52.10;;;;;;5054674;28;21016;-65
2022/04/01 06:18:44;;;;;;;6.82;4.25;;;4.30;52.40;;;;;;5054300;28;20221;-65
2022/04/01 06:21:16;;;;;;;7.15;5.05;;;4.20;52.30;;;;;;5054571;28;20312;-68
2022/04/01 06:24:07;;;;;;;9.07;4.63;;;4.30;52.70;;;;;;5054418;28;20229;-66
2022/04/01 06:26:39;;;;;;;5.13;4.28;;;4.40;52.40;;;;;;5054306;28;20228;-65
2022/04/01 06:29:17;;;;;;;9.15;3.67;;;4.50;52.00;;;;;;5054669;28;20690;-64
2022/04/01 06:31:53;;;;;;;5.78;4.00;;;4.40;51.90;;;;;;5054057;28;20237;-66
2022/04/01 06:34:23;;;;;;;4.05;3.15;;;4.40;51.60;;;;;;5054541;28;20308;-65
2022/04/01 06:36:52;;;;;;;7.55;4.10;;;4.40;51.80;;;;;;5054228;28;20586;-64
2022/04/01 06:39:28;;;;;;;10.30;4.00;;;4.40;52.30;;;;;;5054623;28;20232;-66
2022/04/01 06:41:57;;;;;;;6.60;5.03;;;4.40;51.60;;;;;;5053878;28;20298;-65
2022/04/01 06:44:24;;;;;;;13.02;5.53;;;4.40;51.50;;;;;;5054474;28;20225;-65
2022/04/01 06:46:53;;;;;;;9.23;4.20;;;4.50;51.60;;;;;;5053912;28;20225;-64
2022/04/01 06:49:21;;;;;;;3.97;3.55;;;4.50;51.40;;;;;;5054182;28;20232;-65
2022/04/01 06:51:48;;;;;;;8.85;3.53;;;4.50;51.20;;;;;;5053668;28;20225;-65
2022/04/01 06:54:16;;;;;;;5.70;4.30;;;4.50;51.40;;;;;;5054452;28;20312;-65
2022/04/01 06:56:43;;;;;;;6.00;3.35;;;4.60;51.40;;;;;;5053655;28;20237;-65
2022/04/01 06:59:10;;;;;;;3.88;2.67;;;4.60;51.20;;;;;;5054196;28;20221;-66
2022/04/01 07:01:38;;;;;;;4.22;3.13;;;4.60;51.10;;;;;;5053593;28;20247;-65
2022/04/01 07:04:06;;;;;;;5.40;4.50;;;4.60;51.20;;;;;;5054086;28;20299;-64
2022/04/01 07:06:34;;;;;;;5.00;3.60;;;4.70;51.20;;;;;;5053438;28;20225;-66
2022/04/01 07:09:01;;;;;;;7.22;5.93;;;4.70;51.30;;;;;;5053820;28;20218;-64
2022/04/01 07:11:28;;;;;;;5.65;4.15;;;4.80;51.30;;;;;;5053782;28;20229;-65
2022/04/01 07:13:55;;;;;;;6.85;3.47;;;4.90;51.00;;;;;;5053323;28;20225;-64
2022/04/01 07:16:22;;;;;;;4.40;3.33;;;4.90;50.70;;;;;;5053902;28;20213;-65
2022/04/01 07:18:48;;;;;;;5.55;3.20;;;5.00;50.80;;;;;;5053249;28;20236;-65
2022/04/01 07:21:17;;;;;;;5.00;3.97;;;5.10;50.50;;;;;;5053722;28;20268;-65
2022/04/01 07:23:44;;;;;;;5.85;3.03;;;5.10;50.30;;;;;;5053349;28;20712;-65
2022/04/01 07:26:10;;;;;;;4.47;2.97;;;5.10;50.30;;;;;;5053435;28;20226;-66
2022/04/01 07:28:38;;;;;;;3.00;2.70;;;5.20;50.50;;;;;;5053117;28;20618;-65
2022/04/01 07:32:29;;;;;;;3.85;3.30;;;5.20;50.00;;;;;;5053277;28;20304;-65
2022/04/01 07:33:52;;;;;;;5.43;3.92;;;5.30;50.00;;;;;;5052963;28;20233;-66
2022/04/01 07:36:21;;;;;;;5.18;3.45;;;5.40;50.10;;;;;;5053312;28;20221;-65
2022/04/01 07:38:48;;;;;;;8.50;3.65;;;5.50;49.60;;;;;;5052842;28;20225;-65
2022/04/01 07:41:15;;;;;;;6.28;3.28;;;5.50;49.70;;;;;;5053117;28;20227;-65
2022/04/01 07:43:42;;;;;;;4.63;3.22;;;5.60;49.30;;;;;;5052910;28;20227;-64
2022/04/01 07:46:14;;;;;;;7.22;3.75;;;5.60;49.10;;;;;;5053381;28;20236;-65
2022/04/01 07:48:41;;;;;;;3.75;2.88;;;5.70;49.20;;;;;;5052533;28;20220;-65
2022/04/01 07:51:10;;;;;;;4.70;2.88;;;5.80;49.30;;;;;;5053229;28;20577;-65
2022/04/01 07:53:38;;;;;;;6.35;3.63;;;5.90;48.80;;;;;;5052545;28;20229;-66
2022/04/01 07:56:05;;;;;;;6.18;3.90;;;5.80;48.00;;;;;;5052481;28;20808;-64
2022/04/01 07:58:32;;;;;;;6.57;3.80;;;5.90;48.30;;;;;;5052843;28;20663;-66
2022/04/01 08:00:59;;;;;;;4.63;3.00;;;5.90;47.70;;;;;;5052367;28;20224;-66
2022/04/01 08:03:26;;;;;;;4.75;3.50;;;5.90;47.80;;;;;;5052843;28;20262;-65
2022/04/01 08:05:53;;;;;;;3.85;3.28;;;5.90;47.50;;;;;;5052473;28;20228;-64
2022/04/01 08:08:20;;;;;;;5.35;3.08;;;5.80;47.10;;;;;;5052914;28;20221;-66
2022/04/01 08:10:48;;;;;;;7.95;3.30;;;5.90;47.10;;;;;;5052313;28;20221;-66
2022/04/01 08:13:15;;;;;;;3.90;3.58;;;5.90;47.10;;;;;;5052829;28;20910;-65
2022/04/01 08:15:42;;;;;;;3.42;2.60;;;6.00;47.10;;;;;;5052398;28;20221;-65
2022/04/01 08:18:09;;;;;;;4.68;2.83;;;6.10;46.90;;;;;;5052835;28;20247;-65
2022/04/01 08:20:36;;;;;;;3.60;2.85;;;6.20;46.10;;;;;;5052573;28;20249;-64
2022/04/01 08:23:03;;;;;;;3.75;2.85;;;6.30;45.90;;;;;;5052440;28;20221;-65
2022/04/01 08:25:30;;;;;;;8.18;2.78;;;6.20;45.50;;;;;;5052463;28;20225;-65
2022/04/01 08:27:58;;;;;;;6.38;3.22;;;6.30;45.70;;;;;;5052286;28;20221;-65
2022/04/01 08:30:25;;;;;;;15.07;3.90;;;6.40;45.40;;;;;;5052484;28;20240;-64
2022/04/01 08:32:51;;;;;;;6.90;3.40;;;6.50;45.30;;;;;;5052143;28;20268;-66
2022/04/01 08:35:18;;;;;;;4.05;2.90;;;6.50;44.80;;;;;;5052625;28;20705;-65
2022/04/01 08:37:45;;;;;;;6.60;3.58;;;6.60;44.50;;;;;;5052023;28;20225;-66
2022/04/01 08:40:13;;;;;;;5.60;3.67;;;6.60;45.00;;;;;;5052437;28;20224;-65
2022/04/01 08:42:47;;;;;;;3.30;3.00;;;6.60;44.10;;;;;;5052115;28;20225;-66
2022/04/01 08:45:17;;;;;;;5.45;2.80;;;6.70;44.10;;;;;;5052552;28;20224;-64
2022/04/01 08:47:44;;;;;;;5.03;3.30;;;6.80;44.00;;;;;;5052081;28;20232;-65
2022/04/01 08:50:11;;;;;;;4.20;2.83;;;6.80;43.40;;;;;;5052315;28;20235;-64
2022/04/01 08:52:39;;;;;;;4.05;2.55;;;6.80;43.00;;;;;;5052405;28;20232;-65
2022/04/01 08:55:08;;;;;;;7.53;2.90;;;6.90;42.20;;;;;;5051905;28;21079;-65
2022/04/01 08:57:36;;;;;;;3.97;2.75;;;6.90;41.40;;;;;;5052644;28;20662;-65
2022/04/01 09:00:30;;;;;;;5.05;2.83;;;7.00;41.90;;;;;;5052116;28;20231;-65
2022/04/01 09:03:04;;;;;;;3.55;2.20;;;7.00;41.50;;;;;;5051875;28;20232;-65
2022/04/01 09:05:31;;;;;;;5.20;2.75;;;7.20;40.50;;;;;;5052358;28;20225;-65
2022/04/01 09:08:02;;;;;;;3.22;2.63;;;7.20;40.10;;;;;;5054266;28;20228;-65
2022/04/01 09:10:29;;;;;;;5.65;2.50;;;7.30;40.00;;;;;;5056175;28;20224;-65
2022/04/01 09:12:56;;;;;;;2.88;2.20;;;7.30;39.40;;;;;;5055652;28;20243;-65
2022/04/01 09:15:23;;;;;;;3.35;3.05;;;7.20;38.60;;;;;;5056245;28;20304;-65
2022/04/01 09:17:52;;;;;;;3.80;2.30;;;7.00;38.30;;;;;;5055683;28;20567;-65
2022/04/01 09:20:20;;;;;;;4.95;2.60;;;7.10;39.00;;;;;;5055895;28;20271;-66
2022/04/01 09:22:46;;;;;;;3.88;2.60;;;7.10;39.00;;;;;;5055429;28;20220;-66
2022/04/01 09:25:15;;;;;;;4.20;2.95;;;7.10;38.70;;;;;;5055741;28;20232;-65
2022/04/01 09:27:52;;;;;;;5.32;2.95;;;7.20;38.60;;;;;;5055738;28;20228;-64
2022/04/01 09:30:21;;;;;;;4.50;2.67;;;7.20;38.30;;;;;;5055866;28;20240;-65
2022/04/01 09:32:51;;;;;;;10.70;4.45;;;7.30;38.50;;;;;;5055243;28;20220;-65
2022/04/01 09:35:22;;;;;;;3.42;2.72;;;7.30;38.70;;;;;;5055794;28;20229;-65
2022/04/01 09:37:51;;;;;;;5.63;2.55;;;7.30;39.00;;;;;;5055231;28;20248;-65
2022/04/01 09:40:20;;;;;;;4.85;2.63;;;7.30;39.50;;;;;;5055334;28;20240;-66
2022/04/01 09:42:48;;;;;;;8.32;3.00;;;7.40;39.70;;;;;;5055287;28;20221;-65
2022/04/01 09:45:18;;;;;;;4.97;3.60;;;7.50;39.80;;;;;;5055524;28;20224;-65
2022/04/01 09:47:45;;;;;;;4.40;2.63;;;7.50;39.30;;;;;;5054885;28;20228;-65
2022/04/01 09:50:18;;;;;;;4.45;2.58;;;7.60;39.30;;;;;;5055398;28;20573;-65
2022/04/01 09:52:46;;;;;;;3.30;2.92;;;7.50;38.70;;;;;;5054863;28;20224;-64
2022/04/01 09:55:15;;;;;;;4.30;2.28;;;7.60;39.70;;;;;;5055205;28;20248;-65
2022/04/01 09:57:42;;;;;;;9.30;2.20;;;7.50;39.00;;;;;;5054834;28;20611;-65
2022/04/01 10:00:09;;;;;;;4.28;2.92;;;7.60;38.90;;;;;;5055272;28;20537;-65
2022/04/01 10:02:39;;;;;;;3.53;2.92;;;7.60;39.00;;;;;;5054819;28;20228;-65
2022/04/01 10:05:09;;;;;;;6.93;3.72;;;7.70;39.30;;;;;;5055120;28;20228;-64
2022/04/01 10:07:37;;;;;;;8.85;3.90;;;7.80;39.40;;;;;;5054711;28;20220;-64
2022/04/01 10:10:08;;;;;;;5.25;3.40;;;7.90;39.50;;;;;;5054951;28;20255;-65
2022/04/01 10:12:42;;;;;;;5.68;3.63;;;8.10;39.30;;;;;;5054484;28;20251;-65
2022/04/01 10:15:10;;;;;;;6.55;3.17;;;8.10;38.60;;;;;;5054891;28;20689;-65
2022/04/01 10:17:39;;;;;;;5.03;3.35;;;8.10;38.60;;;;;;5053997;28;20242;-65
2022/04/01 10:20:08;;;;;;;5.53;3.08;;;8.10;38.60;;;;;;5054684;28;20221;-65
2022/04/01 10:22:41;;;;;;;7.13;2.97;;;8.10;38.30;;;;;;5054301;28;20224;-65
2022/04/01 10:25:16;;;;;;;8.75;3.25;;;8.20;38.40;;;;;;5054527;28;20233;-66
2022/04/01 10:27:48;;;;;;;7.30;3.15;;;8.30;37.90;;;;;;5054211;28;20220;-67
2022/04/01 10:30:17;;;;;;;3.53;3.10;;;8.30;37.50;;;;;;5054344;28;20235;-65
2022/04/01 10:32:45;;;;;;;7.63;4.28;;;8.30;37.20;;;;;;5054094;28;20233;-65
2022/04/01 10:35:23;;;;;;;4.88;3.50;;;8.30;37.30;;;;;;5054553;28;20220;-65
2022/04/01 10:37:54;;;;;;;3.58;2.67;;;8.40;37.30;;;;;;5053929;28;20225;-65
2022/04/01 10:40:25;;;;;;;4.20;2.42;;;8.30;36.50;;;;;;5054316;28;20286;-65
2022/04/01 10:42:52;;;;;;;3.85;2.80;;;8.30;36.20;;;;;;5054014;28;20256;-66
2022/04/01 10:45:26;;;;;;;10.65;2.90;;;8.30;36.30;;;;;;5054458;28;20221;-65
2022/04/01 10:53:38;;;;;;;3.90;2.75;;;8.10;35.60;;;;;;5054256;28;20278;-65
2022/04/01 10:56:29;;;;;;;2.67;2.47;;;8.20;35.90;;;;;;5054029;28;20274;-66
2022/04/01 10:59:08;;;;;;;5.68;3.17;;;8.20;36.40;;;;;;5053742;28;20566;-65
2022/04/01 11:01:38;;;;;;;6.28;2.72;;;8.20;36.70;;;;;;5053977;28;20752;-65
2022/04/01 11:04:30;;;;;;;4.60;2.80;;;8.20;36.20;;;;;;5053637;28;20539;-66
2022/04/01 11:06:58;;;;;;;4.85;2.45;;;8.30;35.60;;;;;;5053507;28;20528;-66
2022/04/01 11:09:43;;;;;;;4.63;3.17;;;8.40;35.80;;;;;;5053939;28;20239;-65
2022/04/01 11:12:33;;;;;;;6.30;2.55;;;8.50;35.80;;;;;;5053550;28;20224;-65
2022/04/01 11:15:26;;;;;;;10.88;4.45;;;8.50;35.30;;;;;;5053254;28;20229;-66
2022/04/01 11:18:04;;;;;;;3.78;2.42;;;8.50;34.50;;;;;;5053236;28;20343;-66
2022/04/01 11:20:32;;;;;;;3.53;2.50;;;8.60;34.10;;;;;;5053557;28;20244;-66
2022/04/01 11:23:10;;;;;;;5.70;3.03;;;8.60;34.40;;;;;;5053097;28;20628;-65
2022/04/01 11:25:54;;;;;;;8.43;2.40;;;8.60;34.20;;;;;;5053514;28;20295;-65
2022/04/01 11:28:24;;;;;;;5.43;2.70;;;8.60;34.20;;;;;;5054105;28;20311;-66
2022/04/01 11:31:08;;;;;;;4.30;2.67;;;8.70;34.20;;;;;;5052135;28;20667;-66
2022/04/01 11:33:35;;;;;;;5.80;2.38;;;8.70;34.10;;;;;;5051944;28;20225;-65
2022/04/01 11:36:03;;;;;;;6.78;2.72;;;8.70;33.70;;;;;;5053462;28;20299;-66
2022/04/01 11:38:30;;;;;;;3.70;2.47;;;8.70;34.00;;;;;;5053049;28;20244;-65
2022/04/01 11:41:00;;;;;;;4.20;2.40;;;8.70;34.00;;;;;;5053200;28;20233;-65
2022/04/01 11:43:30;;;;;;;5.82;2.55;;;8.70;33.90;;;;;;5053363;28;20702;-66
2022/04/01 11:45:59;;;;;;;8.20;2.58;;;8.70;34.10;;;;;;5053053;28;20217;-65
2022/04/01 11:48:28;;;;;;;2.85;2.10;;;8.70;34.30;;;;;;5053178;28;20671;-65
2022/04/01 11:50:59;;;;;;;5.88;2.30;;;8.70;34.00;;;;;;5052314;28;20229;-65
2022/04/01 11:53:27;;;;;;;4.38;2.55;;;8.80;33.80;;;;;;5053062;28;20224;-65
2022/04/01 11:56:04;;;;;;;5.70;2.60;;;8.80;34.00;;;;;;5052498;28;20236;-65
2022/04/01 11:58:37;;;;;;;3.47;2.40;;;8.90;34.50;;;;;;5053035;28;20221;-65
2022/04/01 12:01:04;;;;;;;5.13;2.00;;;9.00;34.30;;;;;;5052684;28;20951;-65
2022/04/01 12:03:31;;;;;;;4.93;2.60;;;9.10;33.90;;;;;;5052987;28;20216;-66
2022/04/01 12:08:41;;;;;;;4.53;2.33;;;9.20;33.80;;;;;;5052364;28;20691;-65
2022/04/01 12:08:46;;;;;;;6.68;2.08;;;9.30;33.60;;;;;;5052510;28;20267;-65
2022/04/01 12:11:13;;;;;;;6.78;2.20;;;9.40;33.10;;;;;;5052644;28;20295;-66
2022/04/01 12:13:50;;;;;;;4.22;2.38;;;9.50;32.50;;;;;;5052905;28;20221;-65
2022/04/01 12:16:18;;;;;;;5.15;2.42;;;9.40;31.80;;;;;;5053249;28;20549;-66
2022/04/01 12:18:47;;;;;;;6.97;2.90;;;9.40;32.40;;;;;;5052234;28;20630;-65
2022/04/01 12:21:17;;;;;;;3.67;2.45;;;9.50;33.00;;;;;;5052723;28;20298;-65
2022/04/01 12:23:46;;;;;;;4.35;2.10;;;9.50;33.00;;;;;;5052475;28;20235;-65
2022/04/01 12:26:13;;;;;;;3.13;2.17;;;9.60;32.40;;;;;;5052492;28;20262;-65
2022/04/01 12:28:41;;;;;;;3.15;2.08;;;9.70;32.50;;;;;;5052378;28;20240;-65
2022/04/01 12:31:19;;;;;;;2.38;1.90;;;9.60;31.60;;;;;;5052555;28;20229;-65
2022/04/01 12:33:48;;;;;;;3.13;2.30;;;9.60;31.60;;;;;;5052201;28;20728;-65
2022/04/01 12:36:15;;;;;;;9.40;2.70;;;9.60;31.60;;;;;;5052659;28;20634;-64
2022/04/01 12:38:44;;;;;;;9.57;2.60;;;9.60;31.30;;;;;;5052190;28;20232;-65
2022/04/01 12:41:16;;;;;;;5.65;2.70;;;9.60;31.70;;;;;;5053617;28;20224;-66
2022/04/01 12:43:45;;;;;;;2.97;2.65;;;9.50;31.20;;;;;;5056275;28;20670;-65
2022/04/01 12:46:14;;;;;;;3.72;2.67;;;9.50;30.80;;;;;;5056849;28;20235;-65
2022/04/01 12:48:47;;;;;;;4.25;2.30;;;9.50;31.10;;;;;;5056218;28;20571;-65
2022/04/01 12:54:04;;;;;;;7.20;3.53;;;9.40;31.40;;;;;;5049474;28;20220;-66
2022/04/01 12:56:33;;;;;;;8.07;4.38;;;9.30;31.90;;;;;;5055943;28;20220;-66
2022/04/01 12:59:05;;;;;;;8.13;4.55;;;9.30;31.80;;;;;;5056213;28;20228;-65
2022/04/01 13:01:34;;;;;;;3.70;3.10;;;9.40;31.80;;;;;;5054577;28;20225;-66
2022/04/01 13:04:02;;;;;;;4.57;2.30;;;9.50;32.00;;;;;;5056089;28;20225;-65
2022/04/01 13:06:30;;;;;;;9.07;3.20;;;9.40;31.90;;;;;;5053038;28;20224;-65
2022/04/01 13:08:59;;;;;;;6.15;3.10;;;9.50;31.90;;;;;;5056023;28;20244;-67
2022/04/01 13:11:36;;;;;;;6.05;3.08;;;9.60;32.10;;;;;;5055258;28;20232;-67
2022/04/01 13:14:04;;;;;;;5.30;3.78;;;9.50;31.80;;;;;;5055856;28;20286;-66
2022/04/01 13:16:37;;;;;;;5.90;2.95;;;9.50;31.50;;;;;;5055678;28;20553;-65
2022/04/01 13:19:20;;;;;;;8.10;2.97;;;9.50;31.70;;;;;;5052909;28;20228;-65
2022/04/01 13:21:48;;;;;;;3.83;2.40;;;9.50;31.50;;;;;;5056218;28;20233;-66
2022/04/01 13:24:20;;;;;;;4.85;2.75;;;9.50;31.60;;;;;;5055631;28;20765;-66
2022/04/01 13:26:47;;;;;;;4.50;2.63;;;9.60;31.80;;;;;;5055707;28;20236;-66
2022/04/01 13:29:14;;;;;;;7.80;3.05;;;9.60;31.70;;;;;;5055441;28;20220;-66
2022/04/01 13:31:42;;;;;;;4.32;3.65;;;9.70;32.20;;;;;;5055499;28;20624;-65